sensor_id;sensor_type;location;lat;lon;timestamp;temperature;humidity
17266;DHT22;8749;47.076;15.412;2022-09-09T00:01:48;20.20;99.90
17266;DHT22;8749;47.076;15.412;2022-09-09T00:04:25;20.10;99.90
17266;DHT22;8749;47.076;15.412;2022-09-09T00:07:03;20.10;99.90
17266;DHT22;8749;47.076;15.412;2022-09-09T00:09:36;20.10;99.90
17266;DHT22;8749;47.076;15.412;2022-09-09T00:12:11;20.00;99.90
17266;DHT22;8749;47.076;15.412;2022-09-09T00:14:47;20.00;99.90
17266;DHT22;8749;47.076;15.412;2022-09-09T00:17:30;20.00;99.90
17266;DHT22;8749;47.076;15.412;2022-09-09T00:20:04;20.00;99.90
17266;DHT22;8749;47.076;15.412;2022-09-09T00:22:39;20.00;99.90
17266;DHT22;8749;47.076;15.412;2022-09-09T00:25:11;19.90;99.90
17266;DHT22;8749;47.076;15.412;2022-09-09T00:27:45;19.80;99.90
17266;DHT22;8749;47.076;15.412;2022-09-09T00:30:15;19.90;99.90
17266;DHT22;8749;47.076;15.412;2022-09-09T00:32:45;19.80;99.90
17266;DHT22;8749;47.076;15.412;2022-09-09T00:35:18;19.70;99.90
17266;DHT22;8749;47.076;15.412;2022-09-09T00:37:51;19.70;99.90
17266;DHT22;8749;47.076;15.412;2022-09-09T00:40:24;19.70;99.90
17266;DHT22;8749;47.076;15.412;2022-09-09T00:43:03;19.60;99.90
17266;DHT22;8749;47.076;15.412;2022-09-09T00:45:49;19.50;99.90
17266;DHT22;8749;47.076;15.412;2022-09-09T00:48:24;19.50;99.90
17266;DHT22;8749;47.076;15.412;2022-09-09T00:50:57;19.50;99.90
17266;DHT22;8749;47.076;15.412;2022-09-09T00:53:38;19.40;99.90
17266;DHT22;8749;47.076;15.412;2022-09-09T00:56:12;19.30;99.90
17266;DHT22;8749;47.076;15.412;2022-09-09T00:58:42;19.30;99.90
17266;DHT22;8749;47.076;15.412;2022-09-09T01:01:11;19.30;99.90
17266;DHT22;8749;47.076;15.412;2022-09-09T01:03:44;19.30;99.90
17266;DHT22;8749;47.076;15.412;2022-09-09T01:06:22;19.20;99.90
17266;DHT22;8749;47.076;15.412;2022-09-09T01:09:15;19.20;99.90
17266;DHT22;8749;47.076;15.412;2022-09-09T01:11:51;19.20;99.90
17266;DHT22;8749;47.076;15.412;2022-09-09T01:14:38;19.10;99.90
17266;DHT22;8749;47.076;15.412;2022-09-09T01:17:12;19.20;99.90
17266;DHT22;8749;47.076;15.412;2022-09-09T01:19:49;19.20;99.90
17266;DHT22;8749;47.076;15.412;2022-09-09T01:22:25;19.10;99.90
17266;DHT22;8749;47.076;15.412;2022-09-09T01:25:16;19.10;99.90
17266;DHT22;8749;47.076;15.412;2022-09-09T01:27:47;19.10;99.90
17266;DHT22;8749;47.076;15.412;2022-09-09T01:30:16;19.10;99.90
17266;DHT22;8749;47.076;15.412;2022-09-09T01:32:46;19.10;99.90
17266;DHT22;8749;47.076;15.412;2022-09-09T01:35:21;19.00;99.90
17266;DHT22;8749;47.076;15.412;2022-09-09T01:37:53;18.90;99.90
17266;DHT22;8749;47.076;15.412;2022-09-09T01:40:20;18.80;99.90
17266;DHT22;8749;47.076;15.412;2022-09-09T01:42:48;18.80;99.90
17266;DHT22;8749;47.076;15.412;2022-09-09T01:45:15;18.80;99.90
17266;DHT22;8749;47.076;15.412;2022-09-09T01:47:43;18.60;99.90
17266;DHT22;8749;47.076;15.412;2022-09-09T01:50:14;18.50;99.90
17266;DHT22;8749;47.076;15.412;2022-09-09T01:52:42;18.60;99.90
17266;DHT22;8749;47.076;15.412;2022-09-09T01:55:10;18.70;99.90
17266;DHT22;8749;47.076;15.412;2022-09-09T01:57:41;18.80;99.90
17266;DHT22;8749;47.076;15.412;2022-09-09T02:00:14;18.80;99.90
17266;DHT22;8749;47.076;15.412;2022-09-09T02:02:47;18.80;99.90
17266;DHT22;8749;47.076;15.412;2022-09-09T02:05:26;18.70;99.90
17266;DHT22;8749;47.076;15.412;2022-09-09T02:07:59;18.80;99.90
17266;DHT22;8749;47.076;15.412;2022-09-09T02:10:31;18.80;99.90
17266;DHT22;8749;47.076;15.412;2022-09-09T02:13:04;18.80;99.90
17266;DHT22;8749;47.076;15.412;2022-09-09T02:15:40;18.80;99.90
17266;DHT22;8749;47.076;15.412;2022-09-09T02:18:10;18.80;99.90
17266;DHT22;8749;47.076;15.412;2022-09-09T02:20:39;18.90;99.90
17266;DHT22;8749;47.076;15.412;2022-09-09T02:23:07;18.80;99.90
17266;DHT22;8749;47.076;15.412;2022-09-09T02:25:36;18.70;99.90
17266;DHT22;8749;47.076;15.412;2022-09-09T02:28:07;18.80;99.90
17266;DHT22;8749;47.076;15.412;2022-09-09T02:30:37;18.80;99.90
17266;DHT22;8749;47.076;15.412;2022-09-09T02:33:07;18.90;99.90
17266;DHT22;8749;47.076;15.412;2022-09-09T02:35:36;18.90;99.90
17266;DHT22;8749;47.076;15.412;2022-09-09T02:38:06;18.80;99.90
17266;DHT22;8749;47.076;15.412;2022-09-09T02:40:34;18.70;99.90
17266;DHT22;8749;47.076;15.412;2022-09-09T02:43:01;18.80;99.90
17266;DHT22;8749;47.076;15.412;2022-09-09T02:45:34;18.80;99.90
17266;DHT22;8749;47.076;15.412;2022-09-09T02:48:11;18.90;99.90
17266;DHT22;8749;47.076;15.412;2022-09-09T02:50:45;18.80;99.90
17266;DHT22;8749;47.076;15.412;2022-09-09T02:53:17;18.90;99.90
17266;DHT22;8749;47.076;15.412;2022-09-09T02:55:48;18.90;99.90
17266;DHT22;8749;47.076;15.412;2022-09-09T02:58:17;18.80;99.90
17266;DHT22;8749;47.076;15.412;2022-09-09T03:00:46;18.70;99.90
17266;DHT22;8749;47.076;15.412;2022-09-09T03:03:15;18.70;99.90
17266;DHT22;8749;47.076;15.412;2022-09-09T03:05:43;18.70;99.90
17266;DHT22;8749;47.076;15.412;2022-09-09T03:08:11;18.60;99.90
17266;DHT22;8749;47.076;15.412;2022-09-09T03:10:39;18.60;99.90
17266;DHT22;8749;47.076;15.412;2022-09-09T03:13:06;18.60;99.90
17266;DHT22;8749;47.076;15.412;2022-09-09T03:15:33;18.60;99.90
17266;DHT22;8749;47.076;15.412;2022-09-09T03:18:01;18.70;99.90
17266;DHT22;8749;47.076;15.412;2022-09-09T03:20:30;18.80;99.90
17266;DHT22;8749;47.076;15.412;2022-09-09T03:22:58;18.70;99.90
17266;DHT22;8749;47.076;15.412;2022-09-09T03:25:25;18.50;99.90
17266;DHT22;8749;47.076;15.412;2022-09-09T03:27:55;18.40;99.90
17266;DHT22;8749;47.076;15.412;2022-09-09T03:30:22;18.40;99.90
17266;DHT22;8749;47.076;15.412;2022-09-09T03:32:49;18.40;99.90
17266;DHT22;8749;47.076;15.412;2022-09-09T03:35:16;18.40;99.90
17266;DHT22;8749;47.076;15.412;2022-09-09T03:37:45;18.40;99.90
17266;DHT22;8749;47.076;15.412;2022-09-09T03:40:12;18.40;99.90
17266;DHT22;8749;47.076;15.412;2022-09-09T03:42:39;18.30;99.90
17266;DHT22;8749;47.076;15.412;2022-09-09T03:45:08;18.20;99.90
17266;DHT22;8749;47.076;15.412;2022-09-09T03:47:36;18.20;99.90
17266;DHT22;8749;47.076;15.412;2022-09-09T03:50:04;18.30;99.90
17266;DHT22;8749;47.076;15.412;2022-09-09T03:52:35;18.30;99.90
17266;DHT22;8749;47.076;15.412;2022-09-09T03:55:04;18.30;99.90
17266;DHT22;8749;47.076;15.412;2022-09-09T03:57:31;18.30;99.90
17266;DHT22;8749;47.076;15.412;2022-09-09T04:00:01;18.40;99.90
17266;DHT22;8749;47.076;15.412;2022-09-09T04:02:28;18.40;99.90
17266;DHT22;8749;47.076;15.412;2022-09-09T04:04:55;18.50;99.90
17266;DHT22;8749;47.076;15.412;2022-09-09T04:07:22;18.40;99.90
17266;DHT22;8749;47.076;15.412;2022-09-09T04:09:49;18.50;99.90
17266;DHT22;8749;47.076;15.412;2022-09-09T04:12:17;18.60;99.90
17266;DHT22;8749;47.076;15.412;2022-09-09T04:14:44;18.60;99.90
17266;DHT22;8749;47.076;15.412;2022-09-09T04:17:11;18.60;99.90
17266;DHT22;8749;47.076;15.412;2022-09-09T04:19:39;18.50;99.90
17266;DHT22;8749;47.076;15.412;2022-09-09T04:22:07;18.50;99.90
17266;DHT22;8749;47.076;15.412;2022-09-09T04:24:34;18.50;99.90
17266;DHT22;8749;47.076;15.412;2022-09-09T04:27:01;18.60;99.90
17266;DHT22;8749;47.076;15.412;2022-09-09T04:29:30;18.70;99.90
17266;DHT22;8749;47.076;15.412;2022-09-09T04:31:57;18.70;99.90
17266;DHT22;8749;47.076;15.412;2022-09-09T04:34:23;18.70;99.90
17266;DHT22;8749;47.076;15.412;2022-09-09T04:36:51;18.70;99.90
17266;DHT22;8749;47.076;15.412;2022-09-09T04:39:18;18.80;99.90
17266;DHT22;8749;47.076;15.412;2022-09-09T04:41:45;18.80;99.90
17266;DHT22;8749;47.076;15.412;2022-09-09T04:44:12;18.80;99.90
17266;DHT22;8749;47.076;15.412;2022-09-09T04:46:41;18.90;99.90
17266;DHT22;8749;47.076;15.412;2022-09-09T04:49:08;18.80;99.90
17266;DHT22;8749;47.076;15.412;2022-09-09T04:51:35;18.70;99.90
17266;DHT22;8749;47.076;15.412;2022-09-09T04:54:02;18.70;99.90
17266;DHT22;8749;47.076;15.412;2022-09-09T04:56:29;18.70;99.90
17266;DHT22;8749;47.076;15.412;2022-09-09T04:58:56;18.70;99.90
17266;DHT22;8749;47.076;15.412;2022-09-09T05:01:23;18.60;99.90
17266;DHT22;8749;47.076;15.412;2022-09-09T05:03:51;18.60;99.90
17266;DHT22;8749;47.076;15.412;2022-09-09T05:06:20;18.70;99.90
17266;DHT22;8749;47.076;15.412;2022-09-09T05:08:47;18.60;99.90
17266;DHT22;8749;47.076;15.412;2022-09-09T05:11:16;18.70;99.90
17266;DHT22;8749;47.076;15.412;2022-09-09T05:13:43;18.70;99.90
17266;DHT22;8749;47.076;15.412;2022-09-09T05:16:10;18.80;99.90
17266;DHT22;8749;47.076;15.412;2022-09-09T05:18:38;18.90;99.90
17266;DHT22;8749;47.076;15.412;2022-09-09T05:21:07;19.00;99.90
17266;DHT22;8749;47.076;15.412;2022-09-09T05:23:34;19.00;99.90
17266;DHT22;8749;47.076;15.412;2022-09-09T05:26:02;19.00;99.90
17266;DHT22;8749;47.076;15.412;2022-09-09T05:28:29;19.10;99.90
17266;DHT22;8749;47.076;15.412;2022-09-09T05:30:57;19.20;99.90
17266;DHT22;8749;47.076;15.412;2022-09-09T05:33:25;19.20;99.90
17266;DHT22;8749;47.076;15.412;2022-09-09T05:36:00;19.20;99.90
17266;DHT22;8749;47.076;15.412;2022-09-09T05:38:30;19.30;99.90
17266;DHT22;8749;47.076;15.412;2022-09-09T05:40:58;19.30;99.90
17266;DHT22;8749;47.076;15.412;2022-09-09T05:43:25;19.40;99.90
17266;DHT22;8749;47.076;15.412;2022-09-09T05:46:00;19.50;99.90
17266;DHT22;8749;47.076;15.412;2022-09-09T05:48:28;19.60;99.90
17266;DHT22;8749;47.076;15.412;2022-09-09T05:50:56;19.50;99.90
17266;DHT22;8749;47.076;15.412;2022-09-09T05:53:23;19.60;99.90
17266;DHT22;8749;47.076;15.412;2022-09-09T05:55:58;19.70;99.90
17266;DHT22;8749;47.076;15.412;2022-09-09T05:58:25;19.80;99.90
17266;DHT22;8749;47.076;15.412;2022-09-09T06:00:52;19.80;99.90
17266;DHT22;8749;47.076;15.412;2022-09-09T06:03:19;19.90;99.90
17266;DHT22;8749;47.076;15.412;2022-09-09T06:05:57;19.80;99.90
17266;DHT22;8749;47.076;15.412;2022-09-09T06:08:24;19.80;99.90
17266;DHT22;8749;47.076;15.412;2022-09-09T06:10:52;19.90;99.90
17266;DHT22;8749;47.076;15.412;2022-09-09T06:13:19;19.90;99.90
17266;DHT22;8749;47.076;15.412;2022-09-09T06:15:50;19.90;99.90
17266;DHT22;8749;47.076;15.412;2022-09-09T06:18:17;19.80;99.90
17266;DHT22;8749;47.076;15.412;2022-09-09T06:20:54;19.60;99.90
17266;DHT22;8749;47.076;15.412;2022-09-09T06:23:21;19.60;99.90
17266;DHT22;8749;47.076;15.412;2022-09-09T06:25:48;19.60;99.90
17266;DHT22;8749;47.076;15.412;2022-09-09T06:28:18;19.60;99.90
17266;DHT22;8749;47.076;15.412;2022-09-09T06:30:45;19.60;99.90
17266;DHT22;8749;47.076;15.412;2022-09-09T06:33:12;19.70;99.90
17266;DHT22;8749;47.076;15.412;2022-09-09T06:35:39;19.80;99.90
17266;DHT22;8749;47.076;15.412;2022-09-09T06:38:06;19.80;99.90
17266;DHT22;8749;47.076;15.412;2022-09-09T06:40:34;20.00;99.90
17266;DHT22;8749;47.076;15.412;2022-09-09T06:43:01;20.00;99.90
17266;DHT22;8749;47.076;15.412;2022-09-09T06:45:29;20.00;99.90
17266;DHT22;8749;47.076;15.412;2022-09-09T06:47:57;20.00;99.90
17266;DHT22;8749;47.076;15.412;2022-09-09T06:50:24;20.00;99.90
17266;DHT22;8749;47.076;15.412;2022-09-09T06:52:51;20.00;99.90
17266;DHT22;8749;47.076;15.412;2022-09-09T06:55:18;20.20;99.90
17266;DHT22;8749;47.076;15.412;2022-09-09T06:57:46;20.30;99.90
17266;DHT22;8749;47.076;15.412;2022-09-09T07:00:14;20.40;99.90
17266;DHT22;8749;47.076;15.412;2022-09-09T07:02:42;20.40;99.90
17266;DHT22;8749;47.076;15.412;2022-09-09T07:05:09;20.50;99.90
17266;DHT22;8749;47.076;15.412;2022-09-09T07:07:37;20.50;99.90
17266;DHT22;8749;47.076;15.412;2022-09-09T07:10:04;20.40;99.90
17266;DHT22;8749;47.076;15.412;2022-09-09T07:12:33;20.40;99.90
17266;DHT22;8749;47.076;15.412;2022-09-09T07:14:59;20.30;99.90
17266;DHT22;8749;47.076;15.412;2022-09-09T07:17:27;20.20;99.90
17266;DHT22;8749;47.076;15.412;2022-09-09T07:19:56;20.00;99.90
17266;DHT22;8749;47.076;15.412;2022-09-09T07:22:23;19.90;99.90
17266;DHT22;8749;47.076;15.412;2022-09-09T07:24:50;19.90;99.90
17266;DHT22;8749;47.076;15.412;2022-09-09T07:27:17;19.80;99.90
17266;DHT22;8749;47.076;15.412;2022-09-09T07:29:44;19.80;99.90
17266;DHT22;8749;47.076;15.412;2022-09-09T07:32:11;19.90;99.90
17266;DHT22;8749;47.076;15.412;2022-09-09T07:34:38;20.00;99.90
17266;DHT22;8749;47.076;15.412;2022-09-09T07:37:06;20.10;99.90
17266;DHT22;8749;47.076;15.412;2022-09-09T07:39:37;20.10;99.90
17266;DHT22;8749;47.076;15.412;2022-09-09T07:42:04;20.20;99.90
17266;DHT22;8749;47.076;15.412;2022-09-09T07:44:32;20.20;99.90
17266;DHT22;8749;47.076;15.412;2022-09-09T07:47:00;20.30;99.90
17266;DHT22;8749;47.076;15.412;2022-09-09T07:49:27;20.40;99.90
17266;DHT22;8749;47.076;15.412;2022-09-09T07:51:54;20.60;99.90
17266;DHT22;8749;47.076;15.412;2022-09-09T07:54:22;20.60;99.90
17266;DHT22;8749;47.076;15.412;2022-09-09T07:56:50;20.70;99.90
17266;DHT22;8749;47.076;15.412;2022-09-09T07:59:18;20.70;99.90
17266;DHT22;8749;47.076;15.412;2022-09-09T08:01:46;20.70;99.90
17266;DHT22;8749;47.076;15.412;2022-09-09T08:04:15;20.60;99.90
17266;DHT22;8749;47.076;15.412;2022-09-09T08:06:44;20.60;99.90
17266;DHT22;8749;47.076;15.412;2022-09-09T08:09:12;20.70;99.90
17266;DHT22;8749;47.076;15.412;2022-09-09T08:11:41;20.80;99.90
17266;DHT22;8749;47.076;15.412;2022-09-09T08:14:10;20.80;99.90
17266;DHT22;8749;47.076;15.412;2022-09-09T08:16:39;20.90;99.90
17266;DHT22;8749;47.076;15.412;2022-09-09T08:19:07;21.00;99.90
17266;DHT22;8749;47.076;15.412;2022-09-09T08:21:35;21.10;99.90
17266;DHT22;8749;47.076;15.412;2022-09-09T08:24:04;21.10;99.90
17266;DHT22;8749;47.076;15.412;2022-09-09T08:26:32;21.10;99.90
17266;DHT22;8749;47.076;15.412;2022-09-09T08:29:02;21.10;99.90
17266;DHT22;8749;47.076;15.412;2022-09-09T08:31:32;21.20;99.90
17266;DHT22;8749;47.076;15.412;2022-09-09T08:34:01;21.20;99.90
17266;DHT22;8749;47.076;15.412;2022-09-09T08:36:30;21.20;99.90
17266;DHT22;8749;47.076;15.412;2022-09-09T08:38:59;21.10;99.90
17266;DHT22;8749;47.076;15.412;2022-09-09T08:44:53;21.20;99.90
17266;DHT22;8749;47.076;15.412;2022-09-09T08:47:27;21.20;99.90
17266;DHT22;8749;47.076;15.412;2022-09-09T08:50:06;21.30;99.90
17266;DHT22;8749;47.076;15.412;2022-09-09T08:52:43;21.40;99.90
17266;DHT22;8749;47.076;15.412;2022-09-09T08:55:22;21.50;99.90
17266;DHT22;8749;47.076;15.412;2022-09-09T08:57:51;21.50;99.90
17266;DHT22;8749;47.076;15.412;2022-09-09T09:00:20;21.40;99.90
17266;DHT22;8749;47.076;15.412;2022-09-09T09:02:56;21.40;99.90
17266;DHT22;8749;47.076;15.412;2022-09-09T09:05:32;21.40;99.90
17266;DHT22;8749;47.076;15.412;2022-09-09T09:08:08;21.60;99.90
17266;DHT22;8749;47.076;15.412;2022-09-09T09:10:45;21.80;99.90
17266;DHT22;8749;47.076;15.412;2022-09-09T09:13:17;21.90;99.90
17266;DHT22;8749;47.076;15.412;2022-09-09T09:15:51;22.00;99.90
17266;DHT22;8749;47.076;15.412;2022-09-09T09:18:19;21.90;99.90
17266;DHT22;8749;47.076;15.412;2022-09-09T09:20:57;21.80;99.90
17266;DHT22;8749;47.076;15.412;2022-09-09T09:23:33;21.90;99.90
17266;DHT22;8749;47.076;15.412;2022-09-09T09:26:07;22.10;99.90
17266;DHT22;8749;47.076;15.412;2022-09-09T09:28:36;22.10;99.90
17266;DHT22;8749;47.076;15.412;2022-09-09T09:31:06;22.20;99.90
17266;DHT22;8749;47.076;15.412;2022-09-09T09:33:40;22.20;99.90
17266;DHT22;8749;47.076;15.412;2022-09-09T09:36:11;22.50;99.90
17266;DHT22;8749;47.076;15.412;2022-09-09T09:38:52;22.70;99.90
17266;DHT22;8749;47.076;15.412;2022-09-09T09:41:29;22.80;99.90
17266;DHT22;8749;47.076;15.412;2022-09-09T09:43:56;22.80;99.90
17266;DHT22;8749;47.076;15.412;2022-09-09T09:46:25;22.80;99.90
17266;DHT22;8749;47.076;15.412;2022-09-09T09:48:59;22.80;99.90
17266;DHT22;8749;47.076;15.412;2022-09-09T09:51:27;22.80;99.90
17266;DHT22;8749;47.076;15.412;2022-09-09T09:54:08;22.90;99.90
17266;DHT22;8749;47.076;15.412;2022-09-09T09:56:36;22.90;99.90
17266;DHT22;8749;47.076;15.412;2022-09-09T09:59:03;22.90;99.90
17266;DHT22;8749;47.076;15.412;2022-09-09T10:01:33;22.90;99.90
17266;DHT22;8749;47.076;15.412;2022-09-09T10:04:02;22.90;99.90
17266;DHT22;8749;47.076;15.412;2022-09-09T10:06:39;23.00;99.90
17266;DHT22;8749;47.076;15.412;2022-09-09T10:09:21;23.10;99.90
17266;DHT22;8749;47.076;15.412;2022-09-09T10:11:55;23.10;99.90
17266;DHT22;8749;47.076;15.412;2022-09-09T10:14:31;23.20;99.90
17266;DHT22;8749;47.076;15.412;2022-09-09T10:17:13;23.20;99.90
17266;DHT22;8749;47.076;15.412;2022-09-09T10:19:47;23.50;99.90
17266;DHT22;8749;47.076;15.412;2022-09-09T10:22:25;23.60;99.90
17266;DHT22;8749;47.076;15.412;2022-09-09T10:25:10;23.70;99.90
17266;DHT22;8749;47.076;15.412;2022-09-09T10:27:48;23.90;99.90
17266;DHT22;8749;47.076;15.412;2022-09-09T10:30:20;23.90;99.90
17266;DHT22;8749;47.076;15.412;2022-09-09T10:32:53;24.00;99.90
17266;DHT22;8749;47.076;15.412;2022-09-09T10:35:30;24.10;99.90
17266;DHT22;8749;47.076;15.412;2022-09-09T10:38:17;24.10;99.90
17266;DHT22;8749;47.076;15.412;2022-09-09T10:44:06;24.20;99.90
17266;DHT22;8749;47.076;15.412;2022-09-09T10:46:47;24.30;99.90
17266;DHT22;8749;47.076;15.412;2022-09-09T10:49:28;24.40;99.90
17266;DHT22;8749;47.076;15.412;2022-09-09T10:52:01;24.30;99.90
17266;DHT22;8749;47.076;15.412;2022-09-09T10:54:46;23.90;99.90
17266;DHT22;8749;47.076;15.412;2022-09-09T10:57:27;24.00;99.90
17266;DHT22;8749;47.076;15.412;2022-09-09T11:00:02;23.70;99.90
17266;DHT22;8749;47.076;15.412;2022-09-09T11:02:31;23.80;99.90
17266;DHT22;8749;47.076;15.412;2022-09-09T11:05:05;23.80;99.90
17266;DHT22;8749;47.076;15.412;2022-09-09T11:07:39;23.60;99.90
17266;DHT22;8749;47.076;15.412;2022-09-09T11:10:18;23.30;99.90
17266;DHT22;8749;47.076;15.412;2022-09-09T11:12:47;23.40;99.90
17266;DHT22;8749;47.076;15.412;2022-09-09T11:15:18;23.40;99.90
17266;DHT22;8749;47.076;15.412;2022-09-09T11:17:49;23.50;99.90
17266;DHT22;8749;47.076;15.412;2022-09-09T11:20:18;23.40;99.90
17266;DHT22;8749;47.076;15.412;2022-09-09T11:22:48;23.40;99.90
17266;DHT22;8749;47.076;15.412;2022-09-09T11:25:19;23.40;99.90
17266;DHT22;8749;47.076;15.412;2022-09-09T11:28:01;23.40;99.90
17266;DHT22;8749;47.076;15.412;2022-09-09T11:30:40;23.50;99.90
17266;DHT22;8749;47.076;15.412;2022-09-09T11:33:38;23.60;99.90
17266;DHT22;8749;47.076;15.412;2022-09-09T11:36:35;23.60;99.90
17266;DHT22;8749;47.076;15.412;2022-09-09T11:39:24;23.50;99.90
17266;DHT22;8749;47.076;15.412;2022-09-09T11:42:06;23.30;99.90
17266;DHT22;8749;47.076;15.412;2022-09-09T11:44:33;23.20;99.90
17266;DHT22;8749;47.076;15.412;2022-09-09T11:47:00;23.20;99.90
17266;DHT22;8749;47.076;15.412;2022-09-09T11:49:29;23.10;99.90
17266;DHT22;8749;47.076;15.412;2022-09-09T11:51:59;23.10;99.90
17266;DHT22;8749;47.076;15.412;2022-09-09T11:54:29;23.10;99.90
17266;DHT22;8749;47.076;15.412;2022-09-09T11:56:56;23.20;99.90
17266;DHT22;8749;47.076;15.412;2022-09-09T11:59:25;23.20;99.90
17266;DHT22;8749;47.076;15.412;2022-09-09T12:01:55;23.30;99.90
17266;DHT22;8749;47.076;15.412;2022-09-09T12:04:32;23.30;99.90
17266;DHT22;8749;47.076;15.412;2022-09-09T12:07:03;23.50;99.90
17266;DHT22;8749;47.076;15.412;2022-09-09T12:09:40;23.50;99.90
17266;DHT22;8749;47.076;15.412;2022-09-09T12:12:26;23.70;99.90
17266;DHT22;8749;47.076;15.412;2022-09-09T12:15:19;23.60;99.90
17266;DHT22;8749;47.076;15.412;2022-09-09T12:17:48;23.60;99.90
17266;DHT22;8749;47.076;15.412;2022-09-09T12:20:18;23.50;99.90
17266;DHT22;8749;47.076;15.412;2022-09-09T12:25:49;23.30;99.90
17266;DHT22;8749;47.076;15.412;2022-09-09T12:28:22;23.20;99.90
17266;DHT22;8749;47.076;15.412;2022-09-09T12:30:56;23.20;99.90
17266;DHT22;8749;47.076;15.412;2022-09-09T12:33:34;23.40;99.90
17266;DHT22;8749;47.076;15.412;2022-09-09T12:36:02;23.40;99.90
17266;DHT22;8749;47.076;15.412;2022-09-09T12:38:34;23.40;99.90
17266;DHT22;8749;47.076;15.412;2022-09-09T12:41:01;23.50;99.90
17266;DHT22;8749;47.076;15.412;2022-09-09T12:43:29;23.50;99.90
17266;DHT22;8749;47.076;15.412;2022-09-09T12:45:58;23.50;99.90
17266;DHT22;8749;47.076;15.412;2022-09-09T12:48:33;23.50;99.90
17266;DHT22;8749;47.076;15.412;2022-09-09T12:51:02;23.50;99.90
17266;DHT22;8749;47.076;15.412;2022-09-09T12:53:34;23.50;99.90
17266;DHT22;8749;47.076;15.412;2022-09-09T12:56:05;23.40;99.90
17266;DHT22;8749;47.076;15.412;2022-09-09T12:58:35;23.20;99.90
17266;DHT22;8749;47.076;15.412;2022-09-09T13:01:03;23.20;99.90
17266;DHT22;8749;47.076;15.412;2022-09-09T13:03:32;23.10;99.90
17266;DHT22;8749;47.076;15.412;2022-09-09T13:06:11;23.10;99.90
17266;DHT22;8749;47.076;15.412;2022-09-09T13:08:41;23.00;99.90
17266;DHT22;8749;47.076;15.412;2022-09-09T13:11:12;23.10;99.90
17266;DHT22;8749;47.076;15.412;2022-09-09T13:13:41;23.00;99.90
17266;DHT22;8749;47.076;15.412;2022-09-09T13:16:19;23.00;99.90
17266;DHT22;8749;47.076;15.412;2022-09-09T13:18:47;22.90;99.90
17266;DHT22;8749;47.076;15.412;2022-09-09T13:21:15;22.80;99.90
17266;DHT22;8749;47.076;15.412;2022-09-09T13:23:49;22.80;99.90
17266;DHT22;8749;47.076;15.412;2022-09-09T13:26:24;22.80;99.90
17266;DHT22;8749;47.076;15.412;2022-09-09T13:28:52;22.80;99.90
17266;DHT22;8749;47.076;15.412;2022-09-09T13:31:22;22.70;99.90
17266;DHT22;8749;47.076;15.412;2022-09-09T13:33:49;22.80;99.90
17266;DHT22;8749;47.076;15.412;2022-09-09T13:36:28;22.80;99.90
17266;DHT22;8749;47.076;15.412;2022-09-09T13:38:58;22.70;99.90
17266;DHT22;8749;47.076;15.412;2022-09-09T13:41:35;22.70;99.90
17266;DHT22;8749;47.076;15.412;2022-09-09T13:44:03;22.60;99.90
17266;DHT22;8749;47.076;15.412;2022-09-09T13:46:34;22.60;99.90
17266;DHT22;8749;47.076;15.412;2022-09-09T13:49:17;22.50;99.90
17266;DHT22;8749;47.076;15.412;2022-09-09T13:51:46;22.50;99.90
17266;DHT22;8749;47.076;15.412;2022-09-09T13:54:19;22.40;99.90
17266;DHT22;8749;47.076;15.412;2022-09-09T13:56:46;22.40;99.90
17266;DHT22;8749;47.076;15.412;2022-09-09T13:59:16;22.30;99.90
17266;DHT22;8749;47.076;15.412;2022-09-09T14:01:43;22.20;99.90
17266;DHT22;8749;47.076;15.412;2022-09-09T14:04:11;22.20;99.90
17266;DHT22;8749;47.076;15.412;2022-09-09T14:06:39;22.30;99.90
17266;DHT22;8749;47.076;15.412;2022-09-09T14:09:07;22.30;99.90
17266;DHT22;8749;47.076;15.412;2022-09-09T14:11:36;22.40;99.90
17266;DHT22;8749;47.076;15.412;2022-09-09T14:14:03;22.40;99.90
17266;DHT22;8749;47.076;15.412;2022-09-09T14:21:27;22.50;99.90
17266;DHT22;8749;47.076;15.412;2022-09-09T14:23:54;22.50;99.90
17266;DHT22;8749;47.076;15.412;2022-09-09T14:26:21;22.50;99.90
17266;DHT22;8749;47.076;15.412;2022-09-09T14:28:50;22.50;99.90
17266;DHT22;8749;47.076;15.412;2022-09-09T14:31:18;22.50;99.90
17266;DHT22;8749;47.076;15.412;2022-09-09T14:33:45;22.50;99.90
17266;DHT22;8749;47.076;15.412;2022-09-09T14:36:12;22.50;99.90
17266;DHT22;8749;47.076;15.412;2022-09-09T14:38:40;22.40;99.90
17266;DHT22;8749;47.076;15.412;2022-09-09T14:41:09;22.20;99.90
17266;DHT22;8749;47.076;15.412;2022-09-09T14:43:37;22.00;99.90
17266;DHT22;8749;47.076;15.412;2022-09-09T14:46:07;22.00;99.90
17266;DHT22;8749;47.076;15.412;2022-09-09T14:48:34;22.10;99.90
17266;DHT22;8749;47.076;15.412;2022-09-09T14:51:06;22.10;99.90
17266;DHT22;8749;47.076;15.412;2022-09-09T14:53:33;22.20;99.90
17266;DHT22;8749;47.076;15.412;2022-09-09T14:56:05;22.10;99.90
17266;DHT22;8749;47.076;15.412;2022-09-09T14:58:32;22.30;99.90
17266;DHT22;8749;47.076;15.412;2022-09-09T15:01:03;22.30;99.90
17266;DHT22;8749;47.076;15.412;2022-09-09T15:03:31;22.20;99.90
17266;DHT22;8749;47.076;15.412;2022-09-09T15:06:04;22.10;99.90
17266;DHT22;8749;47.076;15.412;2022-09-09T15:08:31;22.00;99.90
17266;DHT22;8749;47.076;15.412;2022-09-09T15:10:59;21.90;99.90
17266;DHT22;8749;47.076;15.412;2022-09-09T15:15:54;21.60;99.90
17266;DHT22;8749;47.076;15.412;2022-09-09T15:18:21;21.50;99.90
17266;DHT22;8749;47.076;15.412;2022-09-09T15:20:49;21.30;99.90
17266;DHT22;8749;47.076;15.412;2022-09-09T15:23:16;21.20;99.90
17266;DHT22;8749;47.076;15.412;2022-09-09T15:25:52;21.40;99.90
17266;DHT22;8749;47.076;15.412;2022-09-09T15:28:20;21.50;99.90
17266;DHT22;8749;47.076;15.412;2022-09-09T15:30:48;21.60;99.90
17266;DHT22;8749;47.076;15.412;2022-09-09T15:33:15;21.50;99.90
17266;DHT22;8749;47.076;15.412;2022-09-09T15:35:42;21.60;99.90
17266;DHT22;8749;47.076;15.412;2022-09-09T15:38:10;21.60;99.90
17266;DHT22;8749;47.076;15.412;2022-09-09T15:40:38;21.90;99.90
17266;DHT22;8749;47.076;15.412;2022-09-09T15:43:06;22.30;99.90
17266;DHT22;8749;47.076;15.412;2022-09-09T15:45:33;22.40;99.90
17266;DHT22;8749;47.076;15.412;2022-09-09T15:48:00;22.30;99.90
17266;DHT22;8749;47.076;15.412;2022-09-09T15:50:27;22.30;99.90
17266;DHT22;8749;47.076;15.412;2022-09-09T15:52:58;22.30;99.90
17266;DHT22;8749;47.076;15.412;2022-09-09T15:55:26;22.30;99.90
17266;DHT22;8749;47.076;15.412;2022-09-09T15:57:53;22.20;99.90
17266;DHT22;8749;47.076;15.412;2022-09-09T16:00:21;22.10;99.90
17266;DHT22;8749;47.076;15.412;2022-09-09T16:02:48;22.00;99.90
17266;DHT22;8749;47.076;15.412;2022-09-09T16:05:15;22.00;99.90
17266;DHT22;8749;47.076;15.412;2022-09-09T16:07:42;21.90;99.90
17266;DHT22;8749;47.076;15.412;2022-09-09T16:10:10;21.80;99.90